• Join FlightAware (Why Join?)
  • Login
  • US Flag 
04:58AM EDT


 

Airport Tracker/Info


-or-


 

Live Flight TrackerFlight Track Log ✈ FLG3735 ✈ 19-Jun-2013 ✈ KDTW - KALB

Flight Track Log - Related Links

Times and Time Zones

All times are in EDT time to prevent confusion due to time zone crossing. See the FLG3735 flight status page for this flight to view local times or setup timezone preferences in your user account.

Time Position Orientation Groundspeed Altitude Reporting Facility
EDT Latitude Longitude Course Direction KTS MPH feet Rate Location/Type
11:21PM 42.2017 -83.3583 90° East 145 167 1,300  Level Cleveland Center
11:22PM 42.1578 -83.3564 178° South 199 229 2,700 1,620 Climbing Cleveland Center
11:23PM 42.0956 -83.3481 174° South 271 312 4,500 2,400 Climbing Cleveland Center
11:24PM 42.2883 -82.8920 75° East  Level FlightAware Approximate
11:24PM 42.0275 -83.3086 157° South 284 327 7,600  Level Cleveland Center
11:25PM 42.3177 -82.7392 82° East  Level FlightAware Approximate
11:26PM 42.3335 -82.5826 71° East  Level FlightAware Approximate
11:26PM 41.9919 -83.1422 106° East 318 366 10,000  Level Cleveland Center
11:27PM 42.3667 -82.4351 90° East  Level FlightAware Approximate
11:27PM 42.0525 -83.0383 52° Northeast 294 338 11,300  Level Cleveland Center
11:28PM 42.1089 -82.9400 52° Northeast 329 379 13,400 1,740 Climbing Cleveland Center
11:29PM 42.1717 -82.8217 54° Northeast 355 409 14,800 1,440 Climbing Cleveland Center
11:30PM 42.2342 -82.7061 54° Northeast 374 430 16,300 1,500 Climbing Cleveland Center
11:31PM 42.2967 -82.5875 55° Northeast 379 436 17,800 1,320 Climbing Cleveland Center
11:32PM 42.3572 -82.4658 56° Northeast 384 442 19,000 1,260 Climbing Cleveland Center
11:33PM 42.3617 -82.3142 88° East 374 430 20,400 1,320 Climbing Cleveland Center
11:34PM 42.3556 -82.1622 93° East 381 438 21,700 1,320 Climbing Cleveland Center
11:35PM 42.3472 -81.9992 94° East 399 459 23,100 1,200 Climbing Cleveland Center
11:36PM 42.3428 -81.8558 92° East 411 473 24,100 960 Climbing Cleveland Center
11:37PM 42.3381 -81.7011 92° East 411 473 25,100 900 Climbing Cleveland Center
11:38PM 42.3269 -81.5436 95° East 419 482 26,000 840 Climbing Cleveland Center
11:39PM 42.3200 -81.3778 93° East 425 489 26,800 780 Climbing Cleveland Center
11:40PM 42.3125 -81.2150 94° East 430 495 27,600 780 Climbing Cleveland Center
11:41PM 42.3050 -81.0492 93° East 435 501 28,400 840 Climbing Cleveland Center
11:42PM 42.2953 -80.8639 94° East 441 507 29,300 840 Climbing Cleveland Center
11:43PM 42.3100 -80.7039 83° East 436 502 30,100 780 Climbing Cleveland Center
11:44PM 42.3269 -80.5439 82° East 441 507 30,900 420 Climbing Cleveland Center
11:45PM 42.3411 -80.3753 83° East 441 507 31,000  Climbing Cleveland Center
11:46PM 42.3575 -80.2067 82° East 451 519 31,000  Level Cleveland Center
11:47PM 42.3756 -80.0294 82° East 464 534 31,000  Level Cleveland Center
11:48PM 42.3872 -79.8719 84° East 464 534 31,000  Level Cleveland Center
11:49PM 42.4025 -79.6889 83° East 474 545 31,000  Level Cleveland Center
11:50PM 42.4197 -79.5061 83° East 479 551 31,000  Level Cleveland Center
11:51PM 42.4325 -79.3231 85° East 484 557 31,000  Level Cleveland Center
11:52PM 42.4489 -79.1311 83° East 494 568 31,000  Level Cleveland Center
11:53PM 42.4650 -78.9281 84° East 494 568 31,000  Level Cleveland Center
11:54PM 42.4808 -78.7419 83° East 494 568 31,000  Level Cleveland Center
11:55PM 42.4944 -78.5558 84° East 500 575 31,000  Level Cleveland Center
11:56PM 42.5078 -78.3667 84° East 500 575 31,000  Level Cleveland Center
11:57PM 42.5208 -78.1831 84° East 500 575 31,000 -120 Level Cleveland Center
11:58PM 42.5356 -77.9964 84° East 500 575 30,800 -360 Descending Cleveland Center
11:59PM 42.5444 -77.8439 85° East 500 575 30,300 -660 Descending Cleveland Center
12:00AM 42.5667 -77.5072 85° East 518 596 29,200 -540 Descending Boston Center
12:01AM 42.5789 -77.3219 85° East 511 588 29,000 -120 Descending Boston Center
12:02AM 42.5908 -77.1367 85° East 498 573 29,000  Level Boston Center
12:03AM 42.6025 -76.9539 85° East 491 565 29,000  Level Boston Center
12:04AM 42.6139 -76.7686 85° East 491 565 29,000  Level Boston Center
12:05AM 42.6250 -76.5803 85° East 497 572 29,000  Level Boston Center
12:06AM 42.6358 -76.3944 85° East 497 572 29,000 -60 Level Boston Center
12:07AM 42.6458 -76.2258 85° East 497 572 28,900 -480 Descending Boston Center
12:08AM 42.6561 -76.0344 86° East 497 572 28,100 -840 Descending Boston Center
12:09AM 42.6658 -75.8542 86° East 492 566 27,300 -840 Descending Boston Center
12:10AM 42.6733 -75.6708 87° East 487 560 26,500 -840 Descending Boston Center
12:11AM 42.6828 -75.4850 86° East 487 560 25,700 -1,200 Descending Boston Center
12:12AM 42.6894 -75.3017 87° East 487 560 24,100 -1,860 Descending Boston Center
12:13AM 42.7003 -75.1214 85° East 481 554 22,000 -2,100 Descending Boston Center
12:14AM 42.7061 -74.9547 87° East 459 528 20,000 -2,460 Descending Boston Center
12:15AM 42.7089 -74.8250 88° East 436 502 17,900 -2,760 Descending Boston Center
12:16AM 42.7161 -74.6669 86° East 417 480 15,400 -2,760 Descending Boston Center
12:17AM 42.7253 -74.5203 85° East 386 444 12,400 -2,280 Descending Boston Center
12:18AM 42.7297 -74.3847 87° East 350 403 10,900 -1,680 Descending Boston Center
12:19AM 42.7317 -74.2775 89° East 299 344 9,200 -2,220 Descending Boston Center
12:20AM 42.7375 -74.1672 86° East 292 336 6,700 -2,340 Descending Boston Center
12:21AM 42.7408 -74.0683 87° East 259 298 4,600 -1,680 Descending Boston Center
12:22AM 42.7442 -73.9836 87° East 205 236 3,300 -1,380 Descending Boston Center
12:23AM 42.7472 -73.9103 87° East 172 198 1,900 -1,200 Descending Boston Center
12:24AM 42.7500 -73.8567 86° East 141 162 1,000 -900 Descending Boston Center